Startpagina
METAR-TAF:

METAR-TAF

Vliegvelden :

Lublin, Polen

breedte: 51-13-55N, lengte: 22-41-25E, hoogte: 203 m

Actueel weer

Dit bericht is 33 minuten geleden gemaakt, om 22:00 UTC
Wind 6 kt uit het noordnoordoosten
Temperatuur 15°C
Vochtigheid 72%
Druk 1022 hPa
Zicht 10 km of meer
geen wolken onder 1500 m en geen cumulonimbus

METAR: EPLB 232200Z 03006KT CAVOK 15/10 Q1022

Tijdstip: 00:33 (22:33 UTC)

Verwachting

Dit bericht is 2 uur en het 3 minuten geleden gemaakt, om 20:30 UTC
Verwachting geldig van 23 om 21 UTC tot 24 om 06 UTC
Wind 6 kt uit het noordnoordoosten
Zicht 10 km of meer
geen wolken onder 1500 m en geen cumulonimbus
Kans 40%
van 24 om 01 UTC tot 24 om 04 UTC
Zicht: 4000 m
nevel

TAF: EPLB 232030Z 2321/2406 02006KT CAVOK PROB40 2401/2404 4000 BR

Waarnemingen en weersverwachtingen van meer dan 4000 vliegvelden (METAR en TAF).

De beschikbare stations zijn de gele en rode punten op de kaart.

Ga met uw muis naar het station om de naam te zien.

Klik dan om waarnemingen en weersverwachtingen te zien.

kaart wijzigen: klik op de groene knoppen met een zwart kruis om in te zoomen, op de groene knop met een streepje om uit te zoomen of op de groene pijlen voor aangrenzende kaarten.


METAR-TAF: